createdAt,value
2023-03-06T00:01:44.942Z,56.22
2023-03-06T00:04:11.536Z,56.52
2023-03-06T00:06:37.924Z,55.39
2023-03-06T00:09:04.261Z,56.48
2023-03-06T00:11:30.597Z,56.44
2023-03-06T00:13:56.928Z,56.37
2023-03-06T00:16:23.393Z,55.54
2023-03-06T00:18:49.771Z,55.49
2023-03-06T00:21:16.109Z,56.14
2023-03-06T00:23:42.444Z,55.83
2023-03-06T00:26:08.782Z,56.34
2023-03-06T00:28:35.120Z,56.31
2023-03-06T00:31:01.469Z,56.25
2023-03-06T00:33:27.794Z,55.91
2023-03-06T00:35:54.162Z,55.79
2023-03-06T00:38:20.486Z,56.07
2023-03-06T00:40:46.798Z,55.39
2023-03-06T00:43:13.127Z,55.46
2023-03-06T00:45:39.532Z,54.91
2023-03-06T00:48:05.922Z,54.91
2023-03-06T00:50:32.254Z,55.31
2023-03-06T00:52:58.605Z,55.93
2023-03-06T00:55:24.961Z,56.13
2023-03-06T00:57:51.346Z,55.67
2023-03-06T01:00:17.734Z,54.96
2023-03-06T01:02:44.117Z,55.32
2023-03-06T01:05:10.499Z,54.62
2023-03-06T01:07:36.890Z,54.96
2023-03-06T01:10:03.226Z,54.20
2023-03-06T01:12:29.565Z,54.53
2023-03-06T01:14:55.889Z,55.33
2023-03-06T01:17:22.213Z,56.12
2023-03-06T01:19:48.691Z,55.94
2023-03-06T01:22:15.017Z,56.16
2023-03-06T01:24:41.339Z,56.46
2023-03-06T01:27:07.652Z,57.22
2023-03-06T01:29:33.971Z,56.34
2023-03-06T01:32:00.378Z,56.79
2023-03-06T01:34:26.749Z,57.59
2023-03-06T01:36:53.085Z,57.84
2023-03-06T01:39:19.416Z,58.39
2023-03-06T01:41:45.727Z,58.33
2023-03-06T01:44:12.082Z,57.94
2023-03-06T01:46:38.415Z,57.36
2023-03-06T01:49:04.732Z,57.90
2023-03-06T01:51:31.067Z,57.02
2023-03-06T01:53:57.402Z,57.13
2023-03-06T01:56:23.717Z,56.31
2023-03-06T01:58:50.094Z,57.13
2023-03-06T02:01:16.438Z,57.04
2023-03-06T02:03:42.766Z,56.96
2023-03-06T02:06:09.094Z,56.69
2023-03-06T02:08:35.440Z,56.64
2023-03-06T02:11:01.758Z,57.35
2023-03-06T02:13:28.071Z,57.45
2023-03-06T02:15:54.409Z,57.71
2023-03-06T02:18:20.730Z,57.76
2023-03-06T02:20:47.043Z,57.61
2023-03-06T02:23:13.389Z,57.28
2023-03-06T02:25:39.703Z,57.44
2023-03-06T02:28:06.030Z,57.41
2023-03-06T02:30:32.363Z,56.67
2023-03-06T02:32:58.711Z,57.40
2023-03-06T02:35:25.078Z,57.77
2023-03-06T02:37:51.449Z,57.72
2023-03-06T02:40:17.785Z,58.21
2023-03-06T02:42:44.181Z,58.67
2023-03-06T02:45:10.506Z,58.71
2023-03-06T02:47:36.826Z,58.22
2023-03-06T02:50:03.159Z,58.14
2023-03-06T02:52:29.511Z,57.60
2023-03-06T02:54:55.842Z,57.54
2023-03-06T02:57:22.170Z,57.75
2023-03-06T02:59:48.518Z,57.40
2023-03-06T03:02:14.854Z,57.51
2023-03-06T03:04:41.217Z,58.26
2023-03-06T03:07:07.560Z,57.80
2023-03-06T03:09:33.910Z,58.22
2023-03-06T03:12:00.229Z,57.73
2023-03-06T03:14:26.542Z,57.57
2023-03-06T03:16:52.870Z,57.66
2023-03-06T03:19:19.202Z,58.31
2023-03-06T03:21:45.532Z,58.42
2023-03-06T03:24:11.850Z,57.88
2023-03-06T03:26:38.197Z,58.34
2023-03-06T03:29:04.528Z,58.74
2023-03-06T03:31:30.849Z,58.09
2023-03-06T03:33:57.193Z,57.84
2023-03-06T03:36:23.514Z,57.94
2023-03-06T03:38:49.854Z,57.81
2023-03-06T03:41:16.202Z,58.02
2023-03-06T03:43:42.529Z,58.78
2023-03-06T03:46:08.933Z,58.18
2023-03-06T03:48:35.275Z,59.20
2023-03-06T03:51:01.606Z,59.30
2023-03-06T03:53:27.948Z,58.64
2023-03-06T03:55:54.272Z,58.45
2023-03-06T03:58:20.594Z,57.93
2023-03-06T04:00:46.912Z,57.92
2023-03-06T04:03:13.301Z,58.52
2023-03-06T04:05:39.633Z,58.45
2023-03-06T04:08:05.963Z,58.31
2023-03-06T04:10:32.285Z,58.23
2023-03-06T04:12:58.623Z,58.37
2023-03-06T04:15:24.943Z,58.78
2023-03-06T04:17:51.317Z,59.06
2023-03-06T04:20:17.637Z,58.82
2023-03-06T04:22:43.963Z,58.55
2023-03-06T04:25:10.303Z,58.40
2023-03-06T04:27:36.621Z,58.13
2023-03-06T04:30:02.945Z,58.38
2023-03-06T04:32:29.325Z,59.00
2023-03-06T04:34:55.697Z,58.24
2023-03-06T04:37:22.044Z,58.58
2023-03-06T04:39:48.372Z,58.51
2023-03-06T04:42:14.697Z,58.53
2023-03-06T04:44:41.026Z,58.39
2023-03-06T04:47:07.371Z,58.35
2023-03-06T04:49:33.864Z,58.80
2023-03-06T04:52:00.238Z,58.39
2023-03-06T04:54:26.600Z,58.60
2023-03-06T04:56:52.930Z,58.79
2023-03-06T04:59:19.244Z,58.71
2023-03-06T05:01:45.569Z,59.05
2023-03-06T05:04:11.929Z,59.55
2023-03-06T05:06:38.286Z,60.16
2023-03-06T05:09:04.605Z,60.82
2023-03-06T05:11:30.935Z,60.91
2023-03-06T05:13:57.264Z,60.36
2023-03-06T05:16:23.673Z,61.21
2023-03-06T05:18:50.763Z,60.92
2023-03-06T05:21:17.154Z,61.00
2023-03-06T05:23:43.598Z,61.11
2023-03-06T05:26:09.926Z,61.43
2023-03-06T05:28:36.229Z,61.84
2023-03-06T05:31:03.532Z,61.97
2023-03-06T05:33:29.914Z,63.22
2023-03-06T05:35:56.247Z,66.64
2023-03-06T05:38:22.589Z,65.66
2023-03-06T05:40:48.918Z,61.23
2023-03-06T05:43:15.253Z,62.85
2023-03-06T05:45:41.624Z,63.09
2023-03-06T05:48:07.971Z,63.76
2023-03-06T05:50:34.295Z,59.88
2023-03-06T05:53:00.629Z,61.94
2023-03-06T05:55:26.981Z,60.75
2023-03-06T05:57:53.318Z,59.41
2023-03-06T06:00:19.654Z,58.58
2023-03-06T06:02:46.126Z,58.58
2023-03-06T06:05:13.192Z,59.90
2023-03-06T06:07:39.619Z,59.61
2023-03-06T06:10:05.973Z,59.21
2023-03-06T06:12:32.309Z,59.37
2023-03-06T06:14:58.649Z,60.00
2023-03-06T06:17:24.974Z,58.01
2023-03-06T06:19:51.311Z,59.29
2023-03-06T06:22:17.633Z,59.03
2023-03-06T06:24:43.953Z,58.58
2023-03-06T06:27:10.280Z,58.79
2023-03-06T06:29:36.610Z,57.88
2023-03-06T06:32:02.981Z,57.51
2023-03-06T06:34:29.371Z,58.53
2023-03-06T06:36:55.713Z,57.75
2023-03-06T06:39:22.028Z,58.12
2023-03-06T06:42:02.354Z,57.68
2023-03-06T06:44:34.673Z,57.74
2023-03-06T06:49:47.326Z,57.26
2023-03-06T06:52:13.688Z,56.29
2023-03-06T06:54:40.004Z,56.67
2023-03-06T06:57:06.328Z,57.65
2023-03-06T06:59:32.664Z,58.20
2023-03-06T07:01:58.992Z,59.04
2023-03-06T07:04:25.320Z,59.33
2023-03-06T07:06:51.653Z,60.02
2023-03-06T07:09:17.969Z,59.73
2023-03-06T07:11:44.279Z,60.28
2023-03-06T07:14:10.603Z,60.53
2023-03-06T07:16:36.928Z,59.87
2023-03-06T07:19:03.272Z,60.17
2023-03-06T07:21:29.618Z,60.16
2023-03-06T07:23:55.936Z,60.25
2023-03-06T07:26:22.275Z,60.42
2023-03-06T07:28:52.591Z,60.38
2023-03-06T07:31:19.370Z,59.95
2023-03-06T07:33:45.725Z,60.53
2023-03-06T07:36:13.599Z,60.43
2023-03-06T07:38:40.302Z,60.53
2023-03-06T07:41:06.619Z,59.78
2023-03-06T07:43:32.944Z,59.65
2023-03-06T07:45:59.287Z,60.16
2023-03-06T07:48:25.634Z,60.70
2023-03-06T07:50:51.947Z,60.89
2023-03-06T07:53:18.298Z,61.03
2023-03-06T07:55:44.684Z,60.47
2023-03-06T07:58:11.018Z,60.26
2023-03-06T08:00:37.353Z,60.51
2023-03-06T08:03:03.814Z,60.83
2023-03-06T08:05:30.205Z,59.84
2023-03-06T08:07:56.542Z,60.27
2023-03-06T08:10:22.854Z,59.34
2023-03-06T08:12:49.193Z,59.09
2023-03-06T08:15:15.518Z,59.64
2023-03-06T08:17:41.844Z,60.24
2023-03-06T08:20:08.196Z,59.66
2023-03-06T08:22:34.536Z,59.57
2023-03-06T08:25:00.884Z,58.59
2023-03-06T08:27:27.228Z,58.99
2023-03-06T08:29:53.556Z,59.35
2023-03-06T08:32:19.935Z,59.04
2023-03-06T08:34:46.280Z,57.96
2023-03-06T08:37:12.599Z,56.98
2023-03-06T08:39:38.940Z,57.59
2023-03-06T08:42:05.262Z,57.64
2023-03-06T08:44:31.594Z,57.02
2023-03-06T08:46:57.934Z,56.74
2023-03-06T08:49:24.253Z,56.89
2023-03-06T08:51:50.574Z,54.63
2023-03-06T08:54:16.885Z,55.11
2023-03-06T08:56:43.217Z,53.55
2023-03-06T08:59:09.541Z,52.45
2023-03-06T09:01:35.966Z,53.19
2023-03-06T09:04:02.341Z,52.95
2023-03-06T09:06:28.686Z,53.61
2023-03-06T09:08:55.032Z,53.16
2023-03-06T09:11:21.370Z,51.74
2023-03-06T09:13:47.707Z,52.58
2023-03-06T09:16:14.083Z,51.40
2023-03-06T09:18:40.442Z,50.33
2023-03-06T09:21:06.779Z,50.75
2023-03-06T09:23:33.097Z,51.15
2023-03-06T09:25:59.449Z,51.47
2023-03-06T09:28:25.807Z,50.60
2023-03-06T09:30:52.205Z,50.21
2023-03-06T09:33:18.553Z,51.14
2023-03-06T09:35:44.879Z,50.82
2023-03-06T09:38:11.209Z,49.96
2023-03-06T09:40:37.554Z,50.34
2023-03-06T09:43:03.892Z,49.97
2023-03-06T09:45:30.225Z,49.85
2023-03-06T09:47:56.555Z,49.88
2023-03-06T09:50:22.937Z,49.97
2023-03-06T09:52:49.306Z,49.08
2023-03-06T09:55:15.657Z,49.32
2023-03-06T09:57:42.003Z,48.77
2023-03-06T10:00:08.331Z,49.30
2023-03-06T10:02:34.732Z,49.08
2023-03-06T10:05:01.243Z,49.42
2023-03-06T10:07:27.620Z,49.17
2023-03-06T10:09:53.942Z,49.36
2023-03-06T10:12:20.271Z,48.78
2023-03-06T10:14:48.904Z,48.02
2023-03-06T10:17:15.593Z,47.82
2023-03-06T10:19:41.921Z,47.48
2023-03-06T10:22:08.274Z,48.00
2023-03-06T10:24:34.608Z,47.27
2023-03-06T10:27:01.152Z,48.11
2023-03-06T10:29:27.506Z,47.63
2023-03-06T10:31:53.845Z,48.03
2023-03-06T10:34:20.209Z,47.60
2023-03-06T10:36:46.552Z,46.97
2023-03-06T10:39:12.870Z,46.12
2023-03-06T10:41:39.207Z,46.96
2023-03-06T10:44:05.525Z,46.91
2023-03-06T10:46:31.935Z,46.53
2023-03-06T10:48:58.302Z,46.08
2023-03-06T10:51:24.620Z,46.12
2023-03-06T10:53:50.944Z,47.03
2023-03-06T10:56:17.284Z,46.68
2023-03-06T10:58:43.604Z,46.15
2023-03-06T11:01:09.918Z,46.11
2023-03-06T11:03:36.375Z,46.04
2023-03-06T11:06:02.763Z,45.85
2023-03-06T11:08:29.110Z,45.77
2023-03-06T11:10:55.426Z,45.70
2023-03-06T11:13:21.775Z,45.63
2023-03-06T11:15:48.133Z,44.82
2023-03-06T11:18:14.501Z,45.76
2023-03-06T11:20:50.974Z,44.76
2023-03-06T11:23:18.077Z,45.50
2023-03-06T11:25:44.406Z,45.60
2023-03-06T11:28:10.726Z,44.99
2023-03-06T11:30:37.047Z,45.34
2023-03-06T11:33:03.384Z,44.94
2023-03-06T11:35:29.750Z,44.99
2023-03-06T11:37:56.099Z,44.65
2023-03-06T11:40:22.423Z,45.57
2023-03-06T11:42:48.752Z,45.67
2023-03-06T11:45:15.073Z,43.34
2023-03-06T11:47:41.437Z,44.88
2023-03-06T11:50:07.767Z,43.94
2023-03-06T11:52:34.097Z,43.76
2023-03-06T11:55:00.422Z,43.45
2023-03-06T11:57:26.861Z,44.45
2023-03-06T11:59:53.200Z,43.63
2023-03-06T12:02:19.546Z,43.40
2023-03-06T12:04:45.908Z,44.12
2023-03-06T12:07:12.234Z,44.87
2023-03-06T12:09:38.592Z,44.60
2023-03-06T12:12:04.906Z,43.48
2023-03-06T12:14:31.224Z,44.63
2023-03-06T12:16:57.554Z,44.90
2023-03-06T12:19:23.876Z,44.98
2023-03-06T12:21:50.213Z,43.48
2023-03-06T12:24:16.536Z,44.44
2023-03-06T12:26:42.861Z,43.79
2023-03-06T12:29:09.219Z,43.48
2023-03-06T12:31:35.574Z,42.46
2023-03-06T12:34:01.910Z,43.15
2023-03-06T12:36:28.245Z,41.72
2023-03-06T12:38:54.561Z,42.57
2023-03-06T12:41:20.900Z,42.82
2023-03-06T12:43:47.228Z,42.25
2023-03-06T12:46:13.586Z,42.35
2023-03-06T12:48:39.923Z,41.72
2023-03-06T12:51:06.278Z,41.98
2023-03-06T12:53:32.611Z,41.74
2023-03-06T12:55:59.030Z,41.19
2023-03-06T12:58:25.342Z,42.08
2023-03-06T13:00:58.537Z,40.71
2023-03-06T13:03:26.202Z,41.24
2023-03-06T13:05:52.541Z,41.28
2023-03-06T13:08:18.865Z,40.76
2023-03-06T13:10:45.193Z,41.26
2023-03-06T13:13:11.508Z,40.59
2023-03-06T13:15:37.820Z,40.96
2023-03-06T13:18:04.128Z,40.16
2023-03-06T13:20:30.452Z,40.52
2023-03-06T13:22:56.786Z,40.33
2023-03-06T13:25:23.157Z,40.37
2023-03-06T13:27:49.514Z,40.43
2023-03-06T13:30:15.850Z,40.21
2023-03-06T13:32:42.179Z,39.64
2023-03-06T13:35:08.525Z,40.79
2023-03-06T13:37:34.856Z,39.76
2023-03-06T13:40:01.190Z,37.01
2023-03-06T13:42:27.524Z,37.12
2023-03-06T13:44:53.847Z,38.51
2023-03-06T13:47:20.158Z,38.96
2023-03-06T13:49:46.546Z,37.85
2023-03-06T13:52:12.873Z,38.54
2023-03-06T13:54:39.190Z,37.42
2023-03-06T13:57:05.517Z,37.48
2023-03-06T13:59:31.860Z,37.50
2023-03-06T14:01:58.202Z,37.40
2023-03-06T14:04:24.514Z,36.26
2023-03-06T14:06:50.858Z,36.37
2023-03-06T14:09:17.179Z,37.56
2023-03-06T14:11:43.498Z,35.76
2023-03-06T14:14:09.830Z,36.28
2023-03-06T14:16:49.073Z,35.45
2023-03-06T14:19:16.415Z,35.65
2023-03-06T14:21:42.730Z,35.45
2023-03-06T14:24:09.039Z,35.59
2023-03-06T14:26:35.364Z,36.33
2023-03-06T14:29:01.692Z,35.55
2023-03-06T14:31:28.012Z,36.51
2023-03-06T14:33:54.330Z,36.25
2023-03-06T14:36:20.644Z,36.68
2023-03-06T14:38:47.017Z,35.61
2023-03-06T14:41:14.307Z,36.34
2023-03-06T14:43:40.667Z,36.31
2023-03-06T14:46:07.038Z,36.89
2023-03-06T14:48:33.447Z,37.74
2023-03-06T14:50:59.763Z,37.72
2023-03-06T14:53:26.117Z,38.09
2023-03-06T14:55:52.459Z,37.19
2023-03-06T14:58:18.780Z,37.41
2023-03-06T15:00:45.125Z,37.22
2023-03-06T15:03:11.555Z,37.68
2023-03-06T15:05:37.889Z,37.09
2023-03-06T15:08:04.222Z,37.58
2023-03-06T15:10:30.584Z,38.59
2023-03-06T15:12:56.915Z,37.63
2023-03-06T15:15:23.267Z,37.92
2023-03-06T15:17:49.607Z,37.27
2023-03-06T15:20:15.929Z,37.80
2023-03-06T15:22:42.246Z,37.61
2023-03-06T15:25:08.582Z,38.08
2023-03-06T15:27:34.913Z,37.64
2023-03-06T15:30:01.257Z,38.48
2023-03-06T15:32:27.633Z,38.05
2023-03-06T15:34:53.998Z,37.93
2023-03-06T15:37:20.377Z,37.61
2023-03-06T15:39:46.723Z,38.35
2023-03-06T15:42:13.050Z,38.94
2023-03-06T15:44:39.379Z,37.71
2023-03-06T15:47:09.387Z,38.30
2023-03-06T15:49:35.951Z,38.58
2023-03-06T15:52:02.313Z,39.04
2023-03-06T15:54:28.663Z,38.93
2023-03-06T15:56:54.987Z,38.44
2023-03-06T15:59:21.302Z,38.55
2023-03-06T16:01:47.668Z,38.81
2023-03-06T16:04:14.058Z,39.54
2023-03-06T16:06:40.427Z,38.58
2023-03-06T16:09:06.775Z,38.92
2023-03-06T16:11:43.396Z,39.75
2023-03-06T16:14:10.188Z,40.27
2023-03-06T16:16:36.527Z,40.48
2023-03-06T16:19:02.893Z,40.37
2023-03-06T16:21:29.210Z,39.69
2023-03-06T16:23:55.577Z,39.94
2023-03-06T16:26:22.002Z,40.26
2023-03-06T16:28:48.345Z,40.48
2023-03-06T16:31:14.746Z,40.41
2023-03-06T16:33:41.107Z,40.32
2023-03-06T16:36:07.434Z,40.13
2023-03-06T16:38:33.783Z,40.13
2023-03-06T16:41:00.210Z,40.43
2023-03-06T16:43:26.523Z,40.60
2023-03-06T16:45:52.861Z,40.80
2023-03-06T16:48:19.214Z,41.09
2023-03-06T16:50:45.569Z,40.70
2023-03-06T16:53:11.901Z,40.94
2023-03-06T16:55:38.244Z,40.95
2023-03-06T16:58:04.584Z,41.41
2023-03-06T17:00:31.372Z,41.26
2023-03-06T17:02:57.717Z,41.69
2023-03-06T17:05:24.072Z,40.81
2023-03-06T17:07:50.426Z,41.47
2023-03-06T17:10:16.775Z,41.63
2023-03-06T17:12:43.107Z,42.02
2023-03-06T17:15:09.442Z,42.40
2023-03-06T17:17:35.781Z,43.07
2023-03-06T17:20:02.246Z,42.77
2023-03-06T17:22:28.604Z,43.06
2023-03-06T17:24:54.921Z,43.08
2023-03-06T17:27:21.235Z,43.03
2023-03-06T17:29:47.574Z,43.27
2023-03-06T17:32:13.931Z,43.74
2023-03-06T17:34:40.486Z,43.84
2023-03-06T17:37:06.825Z,43.51
2023-03-06T17:39:33.182Z,43.89
2023-03-06T17:41:59.501Z,43.77
2023-03-06T17:44:25.834Z,43.93
2023-03-06T17:46:52.193Z,44.30
2023-03-06T17:49:18.534Z,43.78
2023-03-06T17:51:44.870Z,44.01
2023-03-06T17:54:11.220Z,44.61
2023-03-06T17:56:37.540Z,44.53
2023-03-06T17:59:03.897Z,44.85
2023-03-06T18:01:30.293Z,45.06
2023-03-06T18:03:56.633Z,45.15
2023-03-06T18:18:30.649Z,47.21
2023-03-06T18:20:56.986Z,47.80
2023-03-06T18:23:23.317Z,47.64
2023-03-06T18:25:49.651Z,47.37
2023-03-06T18:28:15.991Z,47.65
2023-03-06T18:30:42.345Z,47.54
2023-03-06T18:33:08.665Z,47.54
2023-03-06T18:35:35.044Z,47.70
2023-03-06T18:38:01.385Z,47.72
2023-03-06T18:40:27.709Z,47.61
2023-03-06T18:42:54.031Z,47.74
2023-03-06T18:45:20.384Z,47.63
2023-03-06T18:47:46.727Z,47.72
2023-03-06T18:50:13.062Z,47.79
2023-03-06T18:52:39.410Z,47.81
2023-03-06T18:55:05.752Z,47.88
2023-03-06T18:57:32.094Z,47.86
2023-03-06T18:59:58.429Z,47.67
2023-03-06T19:02:24.753Z,47.78
2023-03-06T19:04:51.101Z,47.60
2023-03-06T19:07:17.491Z,46.84
2023-03-06T19:09:43.823Z,47.14
2023-03-06T19:12:10.166Z,46.86
2023-03-06T19:14:36.486Z,46.76
2023-03-06T19:17:02.862Z,47.16
2023-03-06T19:19:29.193Z,46.42
2023-03-06T19:21:55.536Z,46.14
2023-03-06T19:24:21.879Z,46.06
2023-03-06T19:26:48.209Z,46.11
2023-03-06T19:29:14.551Z,46.40
2023-03-06T19:31:40.921Z,46.43
2023-03-06T19:34:07.306Z,46.95
2023-03-06T19:36:34.033Z,46.42
2023-03-06T19:39:00.385Z,46.52
2023-03-06T19:41:26.795Z,46.83
2023-03-06T19:43:53.147Z,46.29
2023-03-06T19:46:19.548Z,46.51
2023-03-06T19:48:45.966Z,46.83
2023-03-06T19:51:12.295Z,46.63
2023-03-06T19:53:38.651Z,46.88
2023-03-06T19:56:04.983Z,46.82
2023-03-06T19:58:31.307Z,47.99
2023-03-06T20:00:57.677Z,47.79
2023-03-06T20:03:24.048Z,47.65
2023-03-06T20:05:50.365Z,47.63
2023-03-06T20:08:16.699Z,47.68
2023-03-06T20:10:43.039Z,48.39
2023-03-06T20:13:09.374Z,48.37
2023-03-06T20:15:35.752Z,47.96
2023-03-06T20:18:02.081Z,48.12
2023-03-06T20:20:28.395Z,48.36
2023-03-06T20:22:54.745Z,48.16
2023-03-06T20:25:21.068Z,47.58
2023-03-06T20:27:47.412Z,48.02
2023-03-06T20:30:13.742Z,48.08
2023-03-06T20:32:40.153Z,47.38
2023-03-06T20:35:06.494Z,48.15
2023-03-06T20:37:32.809Z,48.33
2023-03-06T20:39:59.135Z,47.70
2023-03-06T20:42:25.447Z,47.68
2023-03-06T20:44:51.777Z,48.09
2023-03-06T20:47:18.099Z,47.53
2023-03-06T20:49:44.416Z,48.16
2023-03-06T20:52:10.754Z,47.98
2023-03-06T20:54:37.542Z,48.01
2023-03-06T20:57:03.875Z,47.39
2023-03-06T20:59:30.218Z,47.57
2023-03-06T21:01:56.597Z,47.46
2023-03-06T21:04:22.956Z,47.43
2023-03-06T21:06:49.279Z,47.27
2023-03-06T21:09:15.618Z,47.38
2023-03-06T21:11:41.943Z,47.77
2023-03-06T21:14:08.289Z,47.46
2023-03-06T21:16:34.655Z,47.45
2023-03-06T21:19:00.991Z,47.75
2023-03-06T21:21:27.319Z,47.64
2023-03-06T21:23:53.668Z,47.57
2023-03-06T21:26:20.030Z,47.03
2023-03-06T21:28:46.346Z,47.25
2023-03-06T21:31:12.707Z,47.81
2023-03-06T21:33:39.076Z,48.11
2023-03-06T21:36:05.412Z,48.07
2023-03-06T21:38:31.750Z,48.16
2023-03-06T21:40:58.091Z,48.59
2023-03-06T21:43:24.434Z,48.42
2023-03-06T21:45:50.763Z,48.72
2023-03-06T21:48:17.121Z,49.10
2023-03-06T21:50:43.456Z,49.00
2023-03-06T21:53:09.783Z,48.57
2023-03-06T21:55:36.117Z,49.33
2023-03-06T21:58:02.447Z,48.90
2023-03-06T22:00:28.753Z,49.43
2023-03-06T22:02:55.086Z,49.15
2023-03-06T22:05:21.437Z,48.52
2023-03-06T22:07:47.773Z,48.93
2023-03-06T22:10:14.086Z,48.94
2023-03-06T22:12:40.434Z,47.81
2023-03-06T22:15:06.787Z,47.71
2023-03-06T22:17:33.103Z,47.53
2023-03-06T22:19:59.438Z,47.61
2023-03-06T22:22:25.772Z,47.71
2023-03-06T22:24:52.088Z,47.31
2023-03-06T22:27:18.440Z,48.26
2023-03-06T22:29:44.781Z,49.24
2023-03-06T22:32:11.213Z,48.57
2023-03-06T22:34:37.586Z,47.90
2023-03-06T22:37:03.895Z,48.45
2023-03-06T22:39:30.236Z,48.73
2023-03-06T22:41:56.581Z,47.84
2023-03-06T22:44:22.898Z,47.77
2023-03-06T22:46:49.230Z,47.65
2023-03-06T22:49:15.558Z,48.36
2023-03-06T22:51:41.879Z,48.15
2023-03-06T22:54:08.226Z,48.05
2023-03-06T22:56:34.561Z,48.46
2023-03-06T22:59:00.886Z,48.72
2023-03-06T23:01:27.243Z,48.66
2023-03-06T23:03:53.589Z,49.37
2023-03-06T23:06:19.932Z,49.56
2023-03-06T23:08:46.281Z,49.32
2023-03-06T23:11:12.610Z,49.65
2023-03-06T23:13:38.947Z,47.71
2023-03-06T23:16:05.342Z,48.46
2023-03-06T23:18:31.678Z,48.55
2023-03-06T23:20:58.069Z,48.98
2023-03-06T23:23:24.410Z,49.68
2023-03-06T23:25:50.743Z,50.18
2023-03-06T23:28:17.105Z,49.96
2023-03-06T23:30:43.471Z,50.54
2023-03-06T23:33:09.877Z,50.37
2023-03-06T23:35:36.282Z,50.78
2023-03-06T23:38:02.634Z,50.15
2023-03-06T23:40:29.049Z,50.56
2023-03-06T23:42:55.398Z,50.66
2023-03-06T23:45:21.736Z,51.35
2023-03-06T23:47:48.055Z,51.02
2023-03-06T23:50:14.456Z,51.42
2023-03-06T23:52:40.820Z,51.87
2023-03-06T23:55:07.178Z,52.27
2023-03-06T23:57:33.524Z,52.24
2023-03-06T23:59:59.865Z,52.12
